Nacogdoches, TX (75964)

5:12 PM CDT on September 03, 2015 (GMT -0500)
South Side | | Change Station
CLOSE
Current Station
Personal Weather Station
Location: Nacogdoches, TX
Elevation: 331 ft
Nearby Weather Stations

Elev 331 ft 31.59 °N, 94.66 °W | Updated 27 seconds ago

Partly Cloudy
Partly Cloudy
95.7 °F
Feels Like 103 °F
N
3.1
Wind Variable Wind from South
Gusts 4.5 mph

Today
High -- | Low -- °F
--% Chance of Precip.
Yesterday
High -- | Low -- °F
Precip. -- in
6:55 AM 7:40 PM
Waning Gibbous, 66% visible
Pressure 29.87 in
Visibility 10.0 miles
Clouds Few 5500 ft
Heat Index 103 °F
Dew Point 70 °F
Humidity 44%
Rainfall 0.00 in
Snow Depth Not available.
UV 4 out of 12
Pollen 9.10 out of 12
Air Quality Not available.
Flu Activity Not available.
METAR KOCH 032155Z AUTO 13005KT 10SM FEW055 34/20 A2987 RMK AO1
Pressure 29.87 in
Visibility 10.0 miles
Clouds Few 5500 ft
Heat Index 103 °F
Dew Point 70 °F
Humidity 44%
Rainfall 0.00 in
Snow Depth Not available.
UV 4 out of 12
Pollen 9.10 out of 12
Air Quality Not available.
Flu Activity Not available.
METAR KOCH 032155Z AUTO 13005KT 10SM FEW055 34/20 A2987 RMK AO1
Nowcast | as of 5:01 PM CDT on September 3, 2015

Widely scattered showers continue to develop across portions of deep East Texas into the lower Toledo Bend country of west central Louisiana....as well as portions of north central and northeast Louisiana. This activity was moving slowly to the north late this afternoon. While a few thunderstorms will also be possible across this area...after 7 PM or so this evening...look for this activity to begin dissipating with the loss of daytime heating.

×

10-Day Weather Forecast

×

Almanac

Astronomy

Sep. 03, 2015 Rise Set
Actual Time
Civil Twilight
Nautical Twilight
Astronomical Twilight
Moon
Length of Visible Light
Length of Day
Tomorrow will be .
, % of the Moon is Illuminated

Today's Extremes

State Highs State Lows

Community

WunderPhotos

Upload Photos

1,852,048 photos uploaded!

WunderBlogs® & News

Nearby

Air Quality

  Air Quality AQ Index Pollutant
Not available.

Snow Depth

Station Depth Elevation

Earthquake Activity

City Distance Mag. Time & Date
Minimum magnitude displayed is 2.5.

Coastal Water Temperatures

Place Temperature

Stations

Nearby Weather Stations

Station Location Temp. Windchill Dew Point Humidity Wind Precip. Elev Updated Type